Time;durP1;ratioP1;P1;durP2;ratioP2;P2;SDS_P1;SDS_P2;PMS_P1;PMS_P2;Temp;Humidity;BMP_temperature;BMP_pressure;BME280_temperature;BME280_humidity;BME280_pressure;Samples;Min_cycle;Max_cycle;Signal;HPM_P1;HPM_P2
2022/02/27 00:02:12;;;;;;;1.90;1.55;;;18.20;35.40;;;;;;5057113;28;20150;-82
2022/02/27 00:04:38;;;;;;;1.90;1.40;;;18.20;35.60;;;;;;5056895;28;20157;-82
2022/02/27 00:07:03;;;;;;;1.50;1.13;;;18.10;35.70;;;;;;5074832;28;20161;-82
2022/02/27 00:09:29;;;;;;;1.58;1.15;;;18.10;35.70;;;;;;5040179;28;20169;-82
2022/02/27 00:11:56;;;;;;;1.52;1.38;;;18.10;35.70;;;;;;5040490;28;20486;-82
2022/02/27 00:14:21;;;;;;;1.20;1.02;;;18.10;35.70;;;;;;5040337;28;20161;-82
2022/02/27 00:16:47;;;;;;;2.08;1.35;;;18.10;35.80;;;;;;5056912;28;20160;-82
2022/02/27 00:19:13;;;;;;;1.45;1.35;;;18.10;35.80;;;;;;5074380;28;20494;-83
2022/02/27 00:21:39;;;;;;;1.58;1.27;;;18.10;35.90;;;;;;5056539;28;20252;-81
2022/02/27 00:24:05;;;;;;;1.73;1.17;;;18.20;36.00;;;;;;5040093;28;20236;-81
2022/02/27 00:26:30;;;;;;;1.75;1.30;;;18.10;36.00;;;;;;5056605;28;20157;-82
2022/02/27 00:28:58;;;;;;;1.40;1.20;;;18.10;36.00;;;;;;5074403;28;20161;-81
2022/02/27 00:31:23;;;;;;;1.63;1.30;;;18.10;36.00;;;;;;5022418;28;20286;-80
2022/02/27 00:33:49;;;;;;;2.22;1.20;;;18.10;36.10;;;;;;5074134;28;20169;-80
2022/02/27 00:36:16;;;;;;;1.48;1.27;;;18.10;36.00;;;;;;5056379;28;20527;-80
2022/02/27 00:38:43;;;;;;;1.33;1.23;;;18.00;36.00;;;;;;5006217;28;20181;-80
2022/02/27 00:41:09;;;;;;;1.30;1.20;;;18.10;36.00;;;;;;5022381;28;20689;-80
2022/02/27 00:43:35;;;;;;;1.50;1.30;;;18.10;36.20;;;;;;5056897;28;20236;-80
2022/02/27 00:46:04;;;;;;;1.95;1.27;;;18.00;36.20;;;;;;5022382;28;20181;-80
2022/02/27 00:48:30;;;;;;;1.73;1.40;;;18.00;36.30;;;;;;5056556;28;20154;-81
2022/02/27 00:50:55;;;;;;;2.38;1.52;;;18.00;36.30;;;;;;5039582;28;20165;-81
2022/02/27 00:53:21;;;;;;;1.67;1.50;;;18.00;36.30;;;;;;5074043;28;20154;-81
2022/02/27 00:55:47;;;;;;;1.67;1.20;;;18.00;36.20;;;;;;5056088;28;20154;-80
2022/02/27 00:58:12;;;;;;;1.83;1.50;;;18.10;36.40;;;;;;5022827;28;20227;-81
2022/02/27 01:00:38;;;;;;;1.73;1.25;;;18.00;36.30;;;;;;5039360;28;20185;-81
2022/02/27 01:03:03;;;;;;;1.38;1.20;;;18.00;36.40;;;;;;5055991;28;20193;-81
2022/02/27 01:05:29;;;;;;;1.67;1.23;;;18.00;36.40;;;;;;5073824;28;20200;-81
2022/02/27 01:07:56;;;;;;;1.40;1.30;;;18.00;36.50;;;;;;5022759;28;20166;-81
2022/02/27 01:10:21;;;;;;;1.50;1.00;;;18.00;36.40;;;;;;5056255;28;20162;-81
2022/02/27 01:12:47;;;;;;;1.88;1.35;;;18.00;36.40;;;;;;5080611;28;20187;-81
2022/02/27 01:15:13;;;;;;;1.50;1.10;;;18.00;36.50;;;;;;5080100;28;20169;-80
2022/02/27 01:17:39;;;;;;;1.30;1.20;;;17.90;36.50;;;;;;5056555;28;20157;-81
2022/02/27 01:20:05;;;;;;;1.50;1.35;;;18.00;36.70;;;;;;5074740;28;20203;-82
2022/02/27 01:22:33;;;;;;;1.50;1.33;;;18.00;36.70;;;;;;5039813;28;20203;-81
2022/02/27 01:25:00;;;;;;;1.40;1.30;;;18.00;36.60;;;;;;5023600;28;20165;-82
2022/02/27 01:27:29;;;;;;;1.35;1.15;;;18.00;36.70;;;;;;5022875;28;20180;-81
2022/02/27 01:29:58;;;;;;;1.25;1.10;;;18.00;36.80;;;;;;5005705;28;20552;-81
2022/02/27 01:32:23;;;;;;;1.70;1.45;;;17.90;36.70;;;;;;4985620;28;20253;-81
2022/02/27 01:34:53;;;;;;;1.20;1.10;;;18.00;36.90;;;;;;5035652;28;20239;-80
2022/02/27 01:37:21;;;;;;;1.05;0.95;;;17.90;36.90;;;;;;5034968;28;20213;-80
2022/02/27 01:39:47;;;;;;;1.83;1.38;;;17.90;36.80;;;;;;5001794;28;20217;-80
2022/02/27 01:42:13;;;;;;;1.55;1.33;;;18.00;36.90;;;;;;5019492;28;20154;-82
2022/02/27 01:44:40;;;;;;;1.08;0.98;;;17.90;36.90;;;;;;5035797;28;20168;-81
2022/02/27 01:47:10;;;;;;;1.42;1.33;;;17.90;36.80;;;;;;5051963;28;20599;-81
2022/02/27 01:49:39;;;;;;;1.50;1.20;;;17.90;36.90;;;;;;5018917;28;20185;-81
2022/02/27 01:52:07;;;;;;;1.70;1.10;;;17.90;36.90;;;;;;5002140;28;20186;-81
2022/02/27 01:54:35;;;;;;;2.30;1.42;;;17.90;36.90;;;;;;5001888;28;20264;-81
2022/02/27 01:57:03;;;;;;;1.50;1.40;;;17.90;37.20;;;;;;5018385;28;20213;-81
2022/02/27 01:59:30;;;;;;;1.90;1.20;;;17.90;37.10;;;;;;5018067;28;20265;-81
2022/02/27 02:01:58;;;;;;;1.35;1.25;;;17.90;37.20;;;;;;5001567;28;20228;-81
2022/02/27 02:04:23;;;;;;;1.30;1.20;;;17.80;37.20;;;;;;5017902;28;20170;-81
2022/02/27 02:06:49;;;;;;;1.30;1.20;;;17.90;37.30;;;;;;5051765;28;20156;-81
2022/02/27 02:09:15;;;;;;;1.42;1.20;;;17.80;37.30;;;;;;5052618;28;20166;-81
2022/02/27 02:11:40;;;;;;;1.30;1.20;;;17.80;37.30;;;;;;5051861;28;20166;-81
2022/02/27 02:14:06;;;;;;;1.38;1.17;;;17.80;37.40;;;;;;5051723;28;20158;-81
2022/02/27 02:16:42;;;;;;;1.58;1.20;;;17.80;37.30;;;;;;5035301;28;20243;-81
2022/02/27 02:19:07;;;;;;;2.85;1.30;;;17.90;37.40;;;;;;5036569;28;20185;-81
2022/02/27 02:21:41;;;;;;;1.40;1.20;;;17.90;37.30;;;;;;5056821;28;20232;-82
2022/02/27 02:24:07;;;;;;;1.95;1.50;;;17.90;37.50;;;;;;5055685;28;20151;-82
2022/02/27 02:26:34;;;;;;;1.42;1.25;;;17.80;37.50;;;;;;5056664;28;20184;-81
2022/02/27 02:28:59;;;;;;;1.42;1.00;;;17.80;37.50;;;;;;5039120;28;20516;-81
2022/02/27 02:31:25;;;;;;;1.42;1.23;;;17.90;37.50;;;;;;5055144;28;20214;-81
2022/02/27 02:33:51;;;;;;;1.27;1.10;;;17.90;37.50;;;;;;5055341;28;20170;-81
2022/02/27 02:36:17;;;;;;;1.58;1.20;;;17.80;37.60;;;;;;5055631;28;20261;-81
2022/02/27 02:38:44;;;;;;;1.35;1.25;;;17.80;37.60;;;;;;5021131;28;20231;-81
2022/02/27 02:41:11;;;;;;;1.58;1.30;;;17.80;37.60;;;;;;5005113;28;20232;-81
2022/02/27 02:43:38;;;;;;;1.25;1.15;;;17.90;37.50;;;;;;5004925;28;20178;-81
2022/02/27 02:46:04;;;;;;;1.27;1.17;;;17.90;37.50;;;;;;5038483;28;20535;-81
2022/02/27 02:48:31;;;;;;;1.60;1.30;;;17.90;37.60;;;;;;5038355;28;20212;-81
2022/02/27 02:50:57;;;;;;;1.35;1.25;;;17.90;37.70;;;;;;5021116;28;20182;-82
2022/02/27 02:53:32;;;;;;;1.45;1.25;;;17.80;37.70;;;;;;5022069;28;20589;-82
2022/02/27 02:56:01;;;;;;;1.85;1.35;;;17.80;37.80;;;;;;5055059;28;20157;-81
2022/02/27 02:58:28;;;;;;;1.52;1.15;;;17.80;37.80;;;;;;5021952;28;20560;-81
2022/02/27 03:00:56;;;;;;;1.30;1.20;;;17.80;37.90;;;;;;5004451;28;20248;-82
2022/02/27 03:03:23;;;;;;;1.30;1.17;;;17.80;38.00;;;;;;5037557;28;20189;-81
2022/02/27 03:05:50;;;;;;;1.23;1.10;;;17.80;37.80;;;;;;5037509;28;20264;-83
2022/02/27 03:08:17;;;;;;;1.80;1.27;;;17.80;37.90;;;;;;5004599;28;20303;-82
2022/02/27 03:10:43;;;;;;;1.30;1.20;;;17.80;38.00;;;;;;5004384;28;20182;-82
2022/02/27 03:13:08;;;;;;;1.25;1.10;;;17.70;38.70;;;;;;5021644;28;20177;-81
2022/02/27 03:15:34;;;;;;;1.50;1.30;;;17.70;38.10;;;;;;5038115;28;20199;-82
2022/02/27 03:18:00;;;;;;;1.48;1.23;;;17.70;38.10;;;;;;5022104;28;20162;-82
2022/02/27 03:20:25;;;;;;;1.30;1.08;;;17.80;38.10;;;;;;5054432;28;20189;-82
2022/02/27 03:22:51;;;;;;;1.30;1.10;;;17.70;38.00;;;;;;5054504;28;20162;-81
2022/02/27 03:25:17;;;;;;;1.08;0.98;;;17.80;38.20;;;;;;5055754;28;20150;-82
2022/02/27 03:27:44;;;;;;;1.80;1.40;;;17.80;38.10;;;;;;5055552;28;20700;-81
2022/02/27 03:30:09;;;;;;;1.30;1.20;;;17.80;38.20;;;;;;5037109;28;20166;-81
2022/02/27 03:32:36;;;;;;;1.20;0.93;;;17.80;38.20;;;;;;5020684;28;20589;-81
2022/02/27 03:35:02;;;;;;;1.67;1.30;;;17.80;38.30;;;;;;5037626;28;20177;-81
2022/02/27 03:37:27;;;;;;;1.48;1.30;;;17.80;38.10;;;;;;5021436;28;20174;-81
2022/02/27 03:39:53;;;;;;;1.38;1.27;;;17.70;38.20;;;;;;5020930;28;20198;-81
2022/02/27 03:42:19;;;;;;;1.27;1.17;;;17.80;38.20;;;;;;5021866;28;20193;-81
2022/02/27 03:44:44;;;;;;;1.38;1.27;;;17.80;38.20;;;;;;5037464;28;20613;-81
2022/02/27 03:47:10;;;;;;;1.27;1.17;;;17.80;38.30;;;;;;5020940;28;20215;-81
2022/02/27 03:49:36;;;;;;;1.77;1.50;;;17.80;38.30;;;;;;5020869;28;20166;-81
2022/02/27 03:52:03;;;;;;;1.38;1.00;;;17.70;38.30;;;;;;5053906;28;20162;-81
2022/02/27 03:54:29;;;;;;;1.25;1.15;;;17.70;38.40;;;;;;5037663;28;20208;-81
2022/02/27 03:56:55;;;;;;;2.20;1.60;;;17.70;38.40;;;;;;5037465;28;20593;-80
2022/02/27 03:59:20;;;;;;;1.63;1.25;;;17.70;38.40;;;;;;5054972;28;20158;-81
2022/02/27 04:01:46;;;;;;;1.17;1.08;;;17.70;38.30;;;;;;5053623;28;20158;-81
2022/02/27 04:04:12;;;;;;;1.52;1.10;;;17.80;38.40;;;;;;5054186;28;20154;-81
2022/02/27 04:06:37;;;;;;;1.35;1.10;;;17.80;38.30;;;;;;5054843;28;20158;-81
2022/02/27 04:09:03;;;;;;;1.33;1.23;;;17.80;38.50;;;;;;5037128;28;20150;-81
2022/02/27 04:11:29;;;;;;;1.80;1.48;;;17.80;38.60;;;;;;5053664;28;20158;-81
2022/02/27 04:13:55;;;;;;;1.13;1.00;;;17.70;38.40;;;;;;5054883;28;20194;-80
2022/02/27 04:16:20;;;;;;;1.70;1.30;;;17.70;38.50;;;;;;5053556;28;20241;-80
2022/02/27 04:18:46;;;;;;;1.20;1.10;;;17.70;38.60;;;;;;5053405;28;20193;-80
2022/02/27 04:21:11;;;;;;;1.20;1.10;;;17.70;38.70;;;;;;5036648;28;20247;-81
2022/02/27 04:23:37;;;;;;;1.65;1.15;;;17.70;38.70;;;;;;5054799;28;20189;-80
2022/02/27 04:26:03;;;;;;;1.23;1.10;;;17.70;38.70;;;;;;5053354;28;20162;-80
2022/02/27 04:28:28;;;;;;;1.25;1.10;;;17.60;38.70;;;;;;5054416;28;20158;-80
2022/02/27 04:30:54;;;;;;;1.20;1.05;;;17.70;38.60;;;;;;5053136;28;20253;-80
2022/02/27 04:33:19;;;;;;;1.17;1.00;;;17.70;38.70;;;;;;5020862;28;20180;-81
2022/02/27 04:35:45;;;;;;;1.17;1.00;;;17.70;39.20;;;;;;5036832;28;20197;-81
2022/02/27 04:38:11;;;;;;;1.92;1.10;;;17.70;38.70;;;;;;5054325;28;20181;-81
2022/02/27 04:40:37;;;;;;;1.50;1.20;;;17.80;38.50;;;;;;5020004;28;20575;-80
2022/02/27 04:43:03;;;;;;;1.33;1.13;;;17.70;38.70;;;;;;5036371;28;20200;-81
2022/02/27 04:45:29;;;;;;;1.20;1.10;;;17.70;38.70;;;;;;5052946;28;20232;-80
2022/02/27 04:47:54;;;;;;;1.40;1.30;;;17.70;38.70;;;;;;5036651;28;20155;-80
2022/02/27 04:50:20;;;;;;;1.35;1.10;;;17.70;38.80;;;;;;5036331;28;20165;-81
2022/02/27 04:52:46;;;;;;;1.20;1.10;;;17.70;38.90;;;;;;5036367;28;20561;-81
2022/02/27 04:55:12;;;;;;;1.98;1.20;;;17.70;38.80;;;;;;5036131;28;20297;-80
2022/02/27 04:57:37;;;;;;;1.20;1.08;;;17.70;38.90;;;;;;5036124;28;20287;-81
2022/02/27 05:00:06;;;;;;;1.20;1.00;;;17.70;38.80;;;;;;5019704;28;20198;-81
2022/02/27 05:02:33;;;;;;;1.23;1.13;;;17.70;38.80;;;;;;5036434;28;20159;-82
2022/02/27 05:04:58;;;;;;;1.20;1.08;;;17.70;38.90;;;;;;5052521;28;20208;-81
2022/02/27 05:07:25;;;;;;;1.27;1.10;;;17.70;38.80;;;;;;5019430;28;20158;-81
2022/02/27 05:09:50;;;;;;;2.67;1.10;;;17.70;38.80;;;;;;5035746;28;20245;-81
2022/02/27 05:12:16;;;;;;;1.85;1.25;;;17.70;38.90;;;;;;5036104;28;20189;-82
2022/02/27 05:14:45;;;;;;;1.45;1.35;;;17.80;39.00;;;;;;5053521;28;20646;-82
2022/02/27 05:17:14;;;;;;;1.65;1.10;;;17.70;39.00;;;;;;5035108;28;20265;-82
2022/02/27 05:19:43;;;;;;;1.45;1.20;;;17.60;38.90;;;;;;5035080;28;20515;-81
2022/02/27 05:22:12;;;;;;;1.80;0.90;;;17.70;39.10;;;;;;5002169;28;20175;-81
2022/02/27 05:24:41;;;;;;;1.77;1.00;;;17.70;39.10;;;;;;5018454;28;20231;-81
2022/02/27 05:27:09;;;;;;;1.25;1.02;;;17.70;39.00;;;;;;5035072;28;20210;-81
2022/02/27 05:29:37;;;;;;;0.95;0.90;;;17.60;39.10;;;;;;5018356;28;20232;-81
2022/02/27 05:32:06;;;;;;;1.30;1.10;;;17.70;39.10;;;;;;5018069;28;20214;-81
2022/02/27 05:34:31;;;;;;;1.35;1.20;;;17.70;39.20;;;;;;5018593;28;20182;-81
2022/02/27 05:36:59;;;;;;;1.00;0.90;;;17.70;39.20;;;;;;5053378;28;20559;-81
2022/02/27 05:39:25;;;;;;;1.20;1.10;;;17.70;39.10;;;;;;5034866;28;20189;-82
2022/02/27 05:41:51;;;;;;;1.27;1.17;;;17.70;39.10;;;;;;5018891;28;20188;-81
2022/02/27 05:44:16;;;;;;;1.90;0.98;;;17.70;39.30;;;;;;5052495;28;20142;-81
2022/02/27 05:46:42;;;;;;;1.45;1.13;;;17.60;39.10;;;;;;5037620;28;20635;-82
2022/02/27 05:49:08;;;;;;;1.33;1.00;;;17.70;39.20;;;;;;5056172;28;20613;-81
2022/02/27 05:51:33;;;;;;;1.15;1.00;;;17.70;39.10;;;;;;5039637;28;20236;-80
2022/02/27 05:54:03;;;;;;;1.38;1.10;;;17.70;39.10;;;;;;5056667;28;20158;-80
2022/02/27 05:56:30;;;;;;;1.15;1.00;;;17.70;39.30;;;;;;5024505;28;20215;-81
2022/02/27 05:58:57;;;;;;;0.90;0.90;;;17.70;39.10;;;;;;5040500;28;20188;-82
2022/02/27 06:01:25;;;;;;;1.13;0.98;;;17.70;39.10;;;;;;5040126;28;20645;-80
2022/02/27 06:03:50;;;;;;;1.17;1.08;;;17.70;39.30;;;;;;5035570;28;20186;-81
2022/02/27 06:06:16;;;;;;;0.90;0.90;;;17.60;39.40;;;;;;5054520;28;20169;-80
2022/02/27 06:08:42;;;;;;;0.90;0.80;;;17.60;39.20;;;;;;5040660;28;20162;-81
2022/02/27 06:11:07;;;;;;;1.35;1.17;;;17.60;39.40;;;;;;5056036;28;20642;-81
2022/02/27 06:13:33;;;;;;;1.42;1.00;;;17.60;39.40;;;;;;5054018;28;20157;-81
2022/02/27 06:15:58;;;;;;;0.90;0.90;;;17.60;39.20;;;;;;5035520;28;20158;-82
2022/02/27 06:18:24;;;;;;;1.23;0.95;;;17.70;39.30;;;;;;5052004;28;20158;-81
2022/02/27 06:20:50;;;;;;;1.25;0.95;;;17.60;39.30;;;;;;5035394;28;20194;-82
2022/02/27 06:23:15;;;;;;;1.10;1.00;;;17.70;39.40;;;;;;5035179;28;20165;-82
2022/02/27 06:25:42;;;;;;;1.20;1.10;;;17.70;39.50;;;;;;5052026;28;20162;-81
2022/02/27 06:28:07;;;;;;;1.30;1.00;;;17.70;39.60;;;;;;5051598;28;20241;-82
2022/02/27 06:30:33;;;;;;;1.10;0.95;;;17.60;39.40;;;;;;5037186;28;20268;-81
2022/02/27 06:33:01;;;;;;;1.02;0.93;;;17.60;39.50;;;;;;5038752;28;20228;-81
2022/02/27 06:35:27;;;;;;;1.50;1.00;;;17.70;39.30;;;;;;4988457;28;20181;-81
2022/02/27 06:37:53;;;;;;;1.00;0.90;;;17.70;40.10;;;;;;5054964;28;20165;-83
2022/02/27 06:40:19;;;;;;;1.27;1.00;;;17.60;39.50;;;;;;5038312;28;20228;-82
2022/02/27 06:42:45;;;;;;;1.15;1.05;;;17.50;39.70;;;;;;5021706;28;20173;-82
2022/02/27 06:45:11;;;;;;;0.90;0.85;;;17.60;39.60;;;;;;5038345;28;20543;-82
2022/02/27 06:47:36;;;;;;;1.23;1.10;;;17.60;39.80;;;;;;5038244;28;20228;-81
2022/02/27 06:50:03;;;;;;;1.67;1.30;;;17.60;39.80;;;;;;5054593;28;20158;-81
2022/02/27 06:52:28;;;;;;;1.77;1.10;;;17.50;39.70;;;;;;5037896;28;20237;-81
2022/02/27 06:54:54;;;;;;;1.20;1.02;;;17.60;39.70;;;;;;5037219;28;20237;-82
2022/02/27 06:57:22;;;;;;;1.05;0.90;;;17.60;39.60;;;;;;5038159;28;20157;-82
2022/02/27 06:59:49;;;;;;;1.50;1.10;;;17.60;39.80;;;;;;5021100;28;20209;-81
2022/02/27 07:02:17;;;;;;;1.10;1.00;;;17.60;39.70;;;;;;4988524;28;20235;-82
2022/02/27 07:04:44;;;;;;;1.77;1.20;;;17.60;39.80;;;;;;5004692;28;20729;-82
2022/02/27 07:07:11;;;;;;;1.13;0.90;;;17.60;39.90;;;;;;5023450;28;20181;-81
2022/02/27 07:09:39;;;;;;;1.10;1.00;;;17.60;39.80;;;;;;5024277;28;20178;-81
2022/02/27 07:12:06;;;;;;;0.90;0.80;;;17.60;39.80;;;;;;5008376;28;20275;-81
2022/02/27 07:14:33;;;;;;;1.27;1.15;;;17.60;39.80;;;;;;5008170;28;20188;-81
2022/02/27 07:17:00;;;;;;;1.02;0.90;;;17.60;39.80;;;;;;4991292;28;20216;-82
2022/02/27 07:19:27;;;;;;;1.08;0.98;;;17.60;39.90;;;;;;5008028;28;20209;-82
2022/02/27 07:21:55;;;;;;;1.20;1.00;;;17.50;39.80;;;;;;5007768;28;20193;-81
2022/02/27 07:24:22;;;;;;;1.00;0.85;;;17.50;39.90;;;;;;5024530;28;20576;-82
2022/02/27 07:26:49;;;;;;;1.50;1.02;;;17.60;39.80;;;;;;4991090;28;20182;-81
2022/02/27 07:29:16;;;;;;;1.33;1.05;;;17.60;39.80;;;;;;4991127;28;20266;-81
2022/02/27 07:31:41;;;;;;;1.20;1.00;;;17.60;39.90;;;;;;5023935;28;20232;-81
2022/02/27 07:34:08;;;;;;;1.20;1.02;;;17.60;39.90;;;;;;5041107;28;20187;-82
2022/02/27 07:36:35;;;;;;;1.52;1.05;;;17.60;40.00;;;;;;5007532;28;20246;-81
2022/02/27 07:39:01;;;;;;;1.35;1.00;;;17.50;40.30;;;;;;5024168;28;20184;-82
2022/02/27 07:41:28;;;;;;;1.17;1.05;;;17.60;40.00;;;;;;5023644;28;20350;-81
2022/02/27 07:43:54;;;;;;;1.23;1.00;;;17.60;40.10;;;;;;5007441;28;20189;-82
2022/02/27 07:46:21;;;;;;;0.90;0.90;;;17.60;40.00;;;;;;5057640;28;20166;-82
2022/02/27 07:48:47;;;;;;;1.02;0.93;;;17.60;40.00;;;;;;5075072;28;20177;-81
2022/02/27 07:51:13;;;;;;;1.23;1.02;;;17.50;40.00;;;;;;5057554;28;20248;-81
2022/02/27 07:53:39;;;;;;;1.00;0.90;;;17.60;40.00;;;;;;5057098;28;20165;-82
2022/02/27 07:56:05;;;;;;;1.20;1.00;;;17.60;39.60;;;;;;5057740;28;20204;-81
2022/02/27 07:58:31;;;;;;;2.03;1.10;;;17.70;39.70;;;;;;5041270;28;20166;-81
2022/02/27 08:00:56;;;;;;;0.93;0.77;;;17.70;39.30;;;;;;5040307;28;20201;-82
2022/02/27 08:03:22;;;;;;;1.33;1.00;;;17.90;39.10;;;;;;5074979;28;20188;-81
2022/02/27 08:05:48;;;;;;;1.25;1.15;;;17.90;39.20;;;;;;5074909;28;20165;-81
2022/02/27 08:08:14;;;;;;;1.13;0.85;;;17.90;39.20;;;;;;5056823;28;20241;-80
2022/02/27 08:10:40;;;;;;;1.10;0.98;;;17.90;39.10;;;;;;5056921;28;20162;-81
2022/02/27 08:13:06;;;;;;;3.22;0.90;;;18.00;39.00;;;;;;5074720;28;20659;-81
2022/02/27 08:15:31;;;;;;;2.13;0.85;;;18.00;38.90;;;;;;5074635;28;20158;-81
2022/02/27 08:17:57;;;;;;;1.40;1.00;;;17.90;38.80;;;;;;5056480;28;20585;-81
2022/02/27 08:20:23;;;;;;;1.40;1.20;;;18.00;38.90;;;;;;5039962;28;20185;-81
2022/02/27 08:22:49;;;;;;;1.13;1.02;;;18.00;38.90;;;;;;5074636;28;20153;-81
2022/02/27 08:25:15;;;;;;;1.23;0.77;;;17.90;38.70;;;;;;5056722;28;20161;-81
2022/02/27 08:27:42;;;;;;;1.67;1.08;;;18.00;38.50;;;;;;5074305;28;20248;-81
2022/02/27 08:30:08;;;;;;;1.10;0.90;;;18.00;38.50;;;;;;5056733;28;20248;-80
2022/02/27 08:32:34;;;;;;;1.17;0.95;;;18.10;38.50;;;;;;5056196;28;20687;-80
2022/02/27 08:35:00;;;;;;;1.30;0.90;;;18.10;38.50;;;;;;5039711;28;20162;-80
2022/02/27 08:37:26;;;;;;;1.50;0.93;;;18.20;38.20;;;;;;5056595;28;20545;-81
2022/02/27 08:39:52;;;;;;;1.45;0.90;;;18.20;38.20;;;;;;5039449;28;20297;-80
2022/02/27 08:42:18;;;;;;;1.10;0.85;;;18.20;37.90;;;;;;5056722;28;20232;-81
2022/02/27 08:44:44;;;;;;;1.08;0.85;;;18.20;37.90;;;;;;5055971;28;20165;-81
2022/02/27 08:47:10;;;;;;;1.50;0.93;;;18.20;38.30;;;;;;5074313;28;20167;-80
2022/02/27 08:49:36;;;;;;;0.80;0.80;;;18.20;38.10;;;;;;5039420;28;20161;-80
2022/02/27 08:52:06;;;;;;;1.13;0.80;;;18.30;38.10;;;;;;5056163;28;20536;-82
2022/02/27 08:54:32;;;;;;;1.60;0.90;;;18.30;38.00;;;;;;5006823;28;20675;-82
2022/02/27 08:56:58;;;;;;;2.05;1.02;;;18.30;38.00;;;;;;5056334;28;20164;-82
2022/02/27 08:59:24;;;;;;;1.08;0.85;;;18.30;38.00;;;;;;5039627;28;20461;-82
2022/02/27 09:01:49;;;;;;;1.95;0.80;;;18.30;37.90;;;;;;5039358;28;20545;-83
2022/02/27 09:04:15;;;;;;;1.00;0.85;;;18.40;38.10;;;;;;5039330;28;20167;-82
2022/02/27 09:06:42;;;;;;;2.60;0.88;;;18.30;38.30;;;;;;5056214;28;20236;-82
2022/02/27 09:09:07;;;;;;;1.80;1.08;;;18.40;38.00;;;;;;5022730;28;20204;-81
2022/02/27 09:11:33;;;;;;;2.08;1.23;;;18.50;38.10;;;;;;5039251;28;20632;-80
2022/02/27 09:13:59;;;;;;;1.20;1.00;;;18.50;38.00;;;;;;5039404;28;20161;-81
2022/02/27 09:16:24;;;;;;;3.53;0.85;;;18.40;38.00;;;;;;5039863;28;20164;-80
2022/02/27 09:18:50;;;;;;;2.25;0.93;;;18.40;38.10;;;;;;5039305;28;20161;-81
2022/02/27 09:21:16;;;;;;;0.88;0.80;;;18.40;37.80;;;;;;5022653;28;20197;-81
2022/02/27 09:23:41;;;;;;;3.50;1.10;;;18.40;37.80;;;;;;5039363;28;20158;-82
2022/02/27 09:26:07;;;;;;;3.67;0.80;;;18.50;37.80;;;;;;5039130;28;20176;-80
2022/02/27 09:28:33;;;;;;;1.27;0.80;;;18.50;37.70;;;;;;5038606;28;20150;-80
2022/02/27 09:30:58;;;;;;;3.85;0.90;;;18.50;37.60;;;;;;5018993;28;20275;-81
2022/02/27 09:33:25;;;;;;;2.53;1.10;;;18.50;37.70;;;;;;5019245;28;20162;-82
2022/02/27 09:35:53;;;;;;;0.93;0.82;;;18.50;37.60;;;;;;5035983;28;20174;-82
2022/02/27 09:38:20;;;;;;;4.03;0.77;;;18.50;37.60;;;;;;5002668;28;20552;-81
2022/02/27 09:40:49;;;;;;;1.23;0.82;;;18.50;37.60;;;;;;5002262;28;20545;-81
2022/02/27 09:43:16;;;;;;;2.42;0.73;;;18.60;37.70;;;;;;5019337;28;20176;-80
2022/02/27 09:45:42;;;;;;;1.40;0.68;;;18.60;37.60;;;;;;5019541;28;20181;-81
2022/02/27 09:48:08;;;;;;;2.78;0.90;;;18.50;37.80;;;;;;5019987;28;20540;-80
2022/02/27 09:50:34;;;;;;;1.38;0.95;;;18.60;37.60;;;;;;5019707;28;20178;-81
2022/02/27 09:53:01;;;;;;;2.83;0.80;;;18.60;37.50;;;;;;5053963;28;20627;-81
2022/02/27 09:55:26;;;;;;;2.10;1.02;;;18.70;37.30;;;;;;5035969;28;20157;-80
2022/02/27 09:57:52;;;;;;;2.40;0.80;;;18.70;37.40;;;;;;5035028;28;20229;-82
2022/02/27 10:00:18;;;;;;;4.07;0.82;;;18.70;37.30;;;;;;5035287;28;20193;-80
2022/02/27 10:03:06;;;;;;;2.92;0.90;;;18.70;37.60;;;;;;5020821;28;20239;-82
2022/02/27 10:05:39;;;;;;;4.70;1.05;;;18.70;37.80;;;;;;5034389;28;20190;-82
2022/02/27 10:08:07;;;;;;;2.72;1.02;;;18.70;37.60;;;;;;5035604;28;20230;-82
2022/02/27 10:10:36;;;;;;;1.52;0.82;;;18.70;37.60;;;;;;5020080;28;20178;-81
2022/02/27 10:13:06;;;;;;;4.10;0.90;;;18.80;37.60;;;;;;5036792;28;20193;-81
2022/02/27 10:15:35;;;;;;;3.53;1.00;;;18.80;37.60;;;;;;5002749;28;20189;-80
2022/02/27 10:18:14;;;;;;;4.32;0.93;;;18.80;37.40;;;;;;5035332;28;20182;-82
2022/02/27 10:20:42;;;;;;;1.70;0.88;;;18.80;38.20;;;;;;5035015;28;20528;-81
2022/02/27 10:23:10;;;;;;;4.60;1.20;;;18.80;37.50;;;;;;5019541;28;20190;-82
2022/02/27 10:25:40;;;;;;;4.50;1.02;;;18.80;37.50;;;;;;5004485;28;20186;-82
2022/02/27 10:28:07;;;;;;;3.50;0.80;;;18.90;37.90;;;;;;5003842;28;20186;-81
2022/02/27 10:30:36;;;;;;;2.08;0.98;;;18.90;38.20;;;;;;5021170;28;20339;-82
2022/02/27 10:33:06;;;;;;;1.95;0.80;;;18.90;38.10;;;;;;5040304;28;20158;-81
2022/02/27 10:35:40;;;;;;;1.98;0.90;;;18.90;38.00;;;;;;5006908;28;20639;-82
2022/02/27 10:38:17;;;;;;;1.08;0.70;;;18.90;38.00;;;;;;5006881;28;20264;-81
2022/02/27 10:40:50;;;;;;;2.15;0.95;;;18.80;37.60;;;;;;5011700;28;20679;-82
2022/02/27 10:43:18;;;;;;;5.03;1.10;;;18.90;37.70;;;;;;5009063;28;20185;-81
2022/02/27 10:45:59;;;;;;;3.88;0.90;;;18.90;37.70;;;;;;4992009;28;20196;-82
2022/02/27 10:48:29;;;;;;;4.43;1.00;;;18.80;37.70;;;;;;4998638;28;20181;-81
2022/02/27 10:51:08;;;;;;;2.03;0.88;;;18.90;37.80;;;;;;5009242;28;20608;-81
2022/02/27 10:53:39;;;;;;;5.70;0.82;;;18.90;37.80;;;;;;5026428;28;20189;-79
2022/02/27 10:56:07;;;;;;;3.78;1.00;;;18.80;37.70;;;;;;4992979;28;20199;-80
2022/02/27 10:58:41;;;;;;;4.00;1.10;;;18.90;37.80;;;;;;5009027;28;20276;-80
2022/02/27 11:01:17;;;;;;;1.90;0.80;;;19.00;37.60;;;;;;5009873;28;20216;-80
2022/02/27 11:03:43;;;;;;;6.32;1.10;;;19.00;37.50;;;;;;5010860;28;20181;-80
2022/02/27 11:06:10;;;;;;;3.38;1.05;;;19.00;37.80;;;;;;5008831;28;20189;-82
2022/02/27 11:08:37;;;;;;;4.63;1.00;;;19.00;37.40;;;;;;4992973;28;20276;-80
2022/02/27 11:11:04;;;;;;;2.55;0.95;;;19.00;37.60;;;;;;4992742;28;20189;-80
2022/02/27 11:13:30;;;;;;;4.13;0.90;;;19.00;37.60;;;;;;5058652;28;20249;-81
2022/02/27 11:15:57;;;;;;;6.57;1.13;;;19.00;37.70;;;;;;5042022;28;20165;-79
2022/02/27 11:18:23;;;;;;;7.03;0.90;;;19.00;37.90;;;;;;5076936;28;20165;-80
2022/02/27 11:20:54;;;;;;;5.15;0.98;;;19.00;37.70;;;;;;5076816;28;20534;-81
2022/02/27 11:23:24;;;;;;;1.77;0.88;;;19.10;38.00;;;;;;5009156;28;20612;-80
2022/02/27 11:25:51;;;;;;;7.50;1.40;;;19.10;38.10;;;;;;5024849;28;20217;-80
2022/02/27 11:28:20;;;;;;;6.25;1.25;;;19.00;37.90;;;;;;5042301;28;20173;-81
2022/02/27 11:30:47;;;;;;;3.60;1.02;;;19.10;38.00;;;;;;5041086;28;20541;-82
2022/02/27 11:33:19;;;;;;;4.60;1.02;;;19.00;38.90;;;;;;5042112;28;20150;-81
2022/02/27 11:35:49;;;;;;;5.25;1.00;;;19.00;37.80;;;;;;5041206;28;20241;-80
2022/02/27 11:38:18;;;;;;;1.60;0.80;;;19.10;38.30;;;;;;5042028;28;20615;-82
2022/02/27 11:40:56;;;;;;;4.22;1.13;;;19.10;38.10;;;;;;5058605;28;20192;-82
2022/02/27 11:43:38;;;;;;;3.55;0.98;;;19.00;37.90;;;;;;5060500;28;20154;-81
2022/02/27 11:46:08;;;;;;;3.95;0.80;;;19.10;38.20;;;;;;5042719;28;20188;-81
2022/02/27 11:48:56;;;;;;;3.78;0.90;;;19.10;38.10;;;;;;5076153;28;20150;-81
2022/02/27 11:51:40;;;;;;;3.95;1.00;;;19.10;38.10;;;;;;5041206;28;20181;-82
2022/02/27 11:54:09;;;;;;;2.30;0.82;;;19.10;38.20;;;;;;5058120;28;20164;-81
2022/02/27 11:56:37;;;;;;;3.13;1.05;;;19.10;37.80;;;;;;5057592;28;20271;-82
2022/02/27 11:59:03;;;;;;;1.42;1.10;;;19.10;38.00;;;;;;5057588;28;20164;-82
2022/02/27 12:01:53;;;;;;;1.65;0.85;;;19.00;38.30;;;;;;5057396;28;20235;-82
2022/02/27 12:04:24;;;;;;;3.28;1.00;;;19.10;38.20;;;;;;5075846;28;20217;-80
2022/02/27 12:07:05;;;;;;;4.35;0.90;;;19.10;37.90;;;;;;5057272;28;20169;-81
2022/02/27 12:09:55;;;;;;;6.97;1.10;;;19.10;38.80;;;;;;5041552;28;20325;-81
2022/02/27 12:12:51;;;;;;;3.30;1.08;;;19.10;37.80;;;;;;5057985;28;20162;-81
2022/02/27 12:15:24;;;;;;;5.05;0.80;;;19.20;37.80;;;;;;5077804;28;20169;-81
2022/02/27 12:18:19;;;;;;;1.63;0.93;;;19.20;38.00;;;;;;5062355;28;20154;-80
2022/02/27 12:20:50;;;;;;;5.90;1.00;;;19.20;37.90;;;;;;5062166;28;20192;-81
2022/02/27 12:23:40;;;;;;;3.25;0.88;;;19.20;37.70;;;;;;5060771;28;20215;-80
2022/02/27 12:26:08;;;;;;;2.85;0.93;;;19.20;37.60;;;;;;5031010;28;20172;-80
2022/02/27 12:28:54;;;;;;;7.45;1.23;;;19.20;37.60;;;;;;5062104;28;20153;-79
2022/02/27 12:31:29;;;;;;;3.33;0.70;;;19.20;37.70;;;;;;5038527;28;20270;-81
2022/02/27 12:33:56;;;;;;;1.45;0.80;;;19.20;37.40;;;;;;5021610;28;20165;-82
2022/02/27 12:36:27;;;;;;;3.33;0.80;;;19.20;37.60;;;;;;5053475;28;20173;-83
2022/02/27 12:38:59;;;;;;;4.28;1.00;;;19.20;37.60;;;;;;5019884;28;20182;-80
2022/02/27 12:41:29;;;;;;;2.00;1.05;;;19.20;37.70;;;;;;5036480;28;20193;-80
2022/02/27 12:43:56;;;;;;;8.68;1.20;;;19.20;37.60;;;;;;5053664;28;20158;-81
2022/02/27 12:46:22;;;;;;;1.92;0.73;;;19.20;38.00;;;;;;5037122;28;20158;-81
2022/02/27 12:51:32;;;;;;;0.88;0.88;;;19.20;37.70;;;;;;5054088;28;20161;-81
2022/02/27 12:53:59;;;;;;;3.85;1.08;;;19.20;37.60;;;;;;5054296;28;20499;-82